»·PEaware :: AWE180 KDEN-KSLC

AWE180 :: KDEN-KSLC

FLIGHT INFORMATION

Flight Status: Arrived
Operator:
US Airways
More flights by this operator :: More flights under this callsign
Pilot: Etienne B. (28927)
Aircraft: AIRBUS A320
(A320)
More flights by this aircraft type
Origin: KDEN Denver Intl
United States
Destination: KSLC Salt Lake City Intl
United States
More flights between these airports :: More routes between these airports
Route: +ROCKI5 RLG EKR LEEHY5
File this flight plan on PilotEdge
Remarks: RMK / SIMBRIEF
Altitude:
(Current/Filed)
34,000ft
Speed:
(Current/Filed)
432kts
Departed: 21-Apr-20 05:05 PM
Arrived: 21-Apr-20 06:05 PM
Distance/Time
Traveled:
339nm/1:00
Distance/Time
To Go:
Arrived

Flight Plot

Page will automatically refresh every two minutes.

Flight plan parsing failed; only flown route is shown


Map Options




Map Legend


Flown Route
Filed Route
Departure Airport
Arrival Airport
Navaid (VOR, NDB)
Fix

Horizontal Profiles

Position Reports

Time Latitude Longitude Heading Altitude Ground
Speed
21-Apr-20 16:36 39.859354 -104.676327 179 5443ft 0kts
21-Apr-20 16:37 39.859354 -104.676327 179 5443ft 0kts
21-Apr-20 16:38 39.859354 -104.676327 179 5443ft 0kts
21-Apr-20 16:39 39.859354 -104.676327 179 5443ft 0kts
21-Apr-20 16:40 39.859354 -104.676327 179 5443ft 0kts
21-Apr-20 16:41 39.859354 -104.676327 179 5443ft 0kts
21-Apr-20 16:42 39.859354 -104.676327 179 5443ft 0kts
21-Apr-20 16:43 39.859354 -104.676327 179 5443ft 0kts
21-Apr-20 16:44 39.859354 -104.676327 179 5443ft 0kts
21-Apr-20 16:45 39.859354 -104.676327 179 5443ft 0kts
21-Apr-20 16:46 39.859354 -104.676327 179 5443ft 0kts
21-Apr-20 16:47 39.859354 -104.676327 179 5443ft 0kts
21-Apr-20 16:48 39.859354 -104.676327 179 5443ft 0kts
21-Apr-20 16:49 39.859354 -104.676327 179 5443ft 0kts
21-Apr-20 16:50 39.859354 -104.676327 179 5443ft 0kts
21-Apr-20 16:51 39.859354 -104.676327 179 5443ft 0kts
21-Apr-20 16:52 39.859354 -104.676327 179 5443ft 0kts
21-Apr-20 16:53 39.859354 -104.676327 179 5443ft 0kts
21-Apr-20 16:54 39.859433 -104.676326 179 5443ft 2kts
21-Apr-20 16:55 39.859932 -104.676529 127 5443ft 2kts
21-Apr-20 16:56 39.860030 -104.676942 89 5443ft 0kts
21-Apr-20 16:57 39.860030 -104.676942 89 5443ft 0kts
21-Apr-20 16:58 39.860053 -104.675713 89 5443ft 10kts
21-Apr-20 16:59 39.860020 -104.670188 79 5443ft 16kts
21-Apr-20 17:00 39.860635 -104.666541 81 5443ft 7kts
21-Apr-20 17:01 39.861069 -104.663234 90 5443ft 15kts
21-Apr-20 17:02 39.861051 -104.662008 90 5443ft 0kts
21-Apr-20 17:03 39.861047 -104.661440 90 5443ft 5kts
21-Apr-20 17:04 39.850675 -104.660272 180 5443ft 132kts
21-Apr-20 17:05 39.803393 -104.659852 179 7424ft 184kts
21-Apr-20 17:06 39.747215 -104.660511 181 9517ft 224kts
21-Apr-20 17:07 39.684550 -104.695849 241 11409ft 283kts
21-Apr-20 17:08 39.695362 -104.798392 292 13257ft 332kts
21-Apr-20 17:09 39.733665 -104.915331 292 14267ft 385kts
21-Apr-20 17:10 39.774916 -105.042184 292 16278ft 393kts
21-Apr-20 17:11 39.817885 -105.174840 293 18059ft 403kts
21-Apr-20 17:12 39.861539 -105.310216 293 19692ft 411kts
21-Apr-20 17:13 39.905906 -105.448477 293 21147ft 419kts
21-Apr-20 17:14 39.950838 -105.589209 292 22505ft 426kts
21-Apr-20 17:15 39.976772 -105.738326 272 23704ft 433kts
21-Apr-20 17:16 39.982794 -105.895321 272 24822ft 440kts
21-Apr-20 17:17 39.988850 -106.055029 272 25890ft 446kts
21-Apr-20 17:18 39.994772 -106.216820 272 26846ft 451kts
21-Apr-20 17:19 40.000561 -106.381255 272 27687ft 457kts
21-Apr-20 17:20 40.007796 -106.548221 273 28380ft 463kts
21-Apr-20 17:21 40.015985 -106.715151 272 29282ft 462kts
21-Apr-20 17:22 40.023833 -106.881869 272 30220ft 460kts
21-Apr-20 17:23 40.031310 -107.046024 273 31776ft 445kts
21-Apr-20 17:24 40.038422 -107.206795 273 32868ft 442kts
21-Apr-20 17:25 40.045257 -107.366294 273 33861ft 440kts
21-Apr-20 17:26 40.051844 -107.525162 273 34051ft 438kts
21-Apr-20 17:27 40.058246 -107.684830 272 34052ft 445kts
21-Apr-20 17:28 40.064611 -107.848937 272 34050ft 461kts
21-Apr-20 17:29 40.071616 -108.016567 273 34049ft 462kts
21-Apr-20 17:30 40.079219 -108.183909 273 34050ft 462kts
21-Apr-20 17:31 40.086537 -108.351524 273 34054ft 462kts
21-Apr-20 17:32 40.093617 -108.519361 273 34050ft 462kts
21-Apr-20 17:33 40.100317 -108.683843 272 34036ft 462kts
21-Apr-20 17:34 40.106909 -108.851560 272 34027ft 462kts
21-Apr-20 17:35 40.113240 -109.018794 272 34027ft 462kts
21-Apr-20 17:36 40.119283 -109.184859 274 34041ft 458kts
21-Apr-20 17:37 40.125098 -109.350885 274 33999ft 459kts
21-Apr-20 17:38 40.130696 -109.517700 274 34011ft 460kts
21-Apr-20 17:39 40.135840 -109.677716 273 34023ft 461kts
21-Apr-20 17:40 40.141098 -109.848894 273 34026ft 461kts
21-Apr-20 17:41 40.145969 -110.015380 273 34030ft 461kts
21-Apr-20 17:42 40.148705 -110.182097 271 34028ft 461kts
21-Apr-20 17:44 40.147331 -110.349401 271 33419ft 460kts
21-Apr-20 17:45 40.145726 -110.516964 271 32470ft 464kts
21-Apr-20 17:46 40.143854 -110.686045 270 31509ft 467kts
21-Apr-20 17:47 40.141719 -110.856611 270 30543ft 470kts
21-Apr-20 17:48 40.139343 -111.025787 270 27770ft 472kts
21-Apr-20 17:49 40.136680 -111.199024 270 24372ft 478kts
21-Apr-20 17:50 40.133728 -111.370179 270 21860ft 461kts
21-Apr-20 17:51 40.132693 -111.532833 280 18810ft 427kts
21-Apr-20 17:52 40.172497 -111.661921 297 17418ft 356kts
21-Apr-20 17:53 40.234455 -111.756824 315 14964ft 338kts
21-Apr-20 17:54 40.299645 -111.840600 323 12134ft 321kts
21-Apr-20 17:55 40.366572 -111.908262 322 10144ft 287kts
21-Apr-20 17:56 40.437270 -111.933989 354 9047ft 248kts
21-Apr-20 17:57 40.501232 -111.941051 354 9040ft 215kts
21-Apr-20 17:58 40.552432 -111.947380 352 8589ft 161kts
21-Apr-20 17:59 40.596583 -111.952340 352 7823ft 154kts
21-Apr-20 18:00 40.639299 -111.956892 355 6957ft 153kts
21-Apr-20 18:01 40.681523 -111.962100 352 6084ft 153kts
21-Apr-20 18:02 40.723684 -111.966988 351 5270ft 151kts
21-Apr-20 18:02 40.758503 -111.971247 352 4591ft 151kts
21-Apr-20 18:04 40.791414 -111.975449 326 4236ft 41kts
21-Apr-20 18:05 40.790878 -111.977214 175 4236ft 12kts
21-Apr-20 18:06 40.789635 -111.980013 217 4236ft 6kts

Navigation Log

Ident Type
Flight plan parsing failed, navigation log unavailable